Time;durP1;ratioP1;P1;durP2;ratioP2;P2;SDS_P1;SDS_P2;PMS_P1;PMS_P2;Temp;Humidity;BMP_temperature;BMP_pressure;BME280_temperature;BME280_humidity;BME280_pressure;Samples;Min_cycle;Max_cycle;Signal;HPM_P1;HPM_P2
2021/06/09 00:00:16;;;;;;;1999.90;999.90;;;;;;;13.58;100.00;95623.53;5131705;27;20230;-60
2021/06/09 00:02:43;;;;;;;1999.90;999.90;;;;;;;13.50;100.00;95622.44;5131717;27;20198;-61
2021/06/09 00:05:10;;;;;;;1999.90;999.90;;;;;;;13.39;100.00;95626.47;5131549;27;20682;-60
2021/06/09 00:07:37;;;;;;;1999.90;999.90;;;;;;;13.35;100.00;95621.06;5131396;27;20190;-61
2021/06/09 00:10:06;;;;;;;1999.90;999.90;;;;;;;13.25;100.00;95620.63;5131799;27;20236;-60
2021/06/09 00:12:34;;;;;;;1999.90;999.90;;;;;;;13.23;100.00;95622.75;5131404;27;20253;-60
2021/06/09 00:15:02;;;;;;;1999.90;999.90;;;;;;;13.21;100.00;95609.22;5131621;27;20187;-61
2021/06/09 00:17:30;;;;;;;1999.90;999.90;;;;;;;13.17;100.00;95618.75;5131457;27;20186;-61
2021/06/09 00:19:56;;;;;;;1999.90;999.90;;;;;;;13.14;100.00;95621.97;5131235;27;20652;-60
2021/06/09 00:22:23;;;;;;;1999.90;999.90;;;;;;;13.15;100.00;95626.13;5131251;27;20239;-60
2021/06/09 00:24:50;;;;;;;1999.90;999.90;;;;;;;13.18;100.00;95622.91;5131581;27;20613;-60
2021/06/09 00:27:17;;;;;;;1999.90;999.90;;;;;;;13.19;100.00;95624.44;5131404;27;20206;-60
2021/06/09 00:29:45;;;;;;;1999.90;999.90;;;;;;;13.15;100.00;95620.91;5131154;27;20214;-60
2021/06/09 00:32:12;;;;;;;1999.90;999.90;;;;;;;13.15;100.00;95628.75;5131042;27;20194;-60
2021/06/09 00:34:38;;;;;;;1999.90;999.90;;;;;;;13.16;100.00;95617.97;5131213;27;20286;-61
2021/06/09 00:37:06;;;;;;;1999.90;999.90;;;;;;;13.08;100.00;95620.56;5131034;27;20198;-60
2021/06/09 00:39:33;;;;;;;1999.90;999.90;;;;;;;13.09;100.00;95624.72;5130925;27;20739;-61
2021/06/09 00:42:00;;;;;;;1999.90;999.90;;;;;;;13.10;100.00;95623.66;5130909;27;20254;-61
2021/06/09 00:44:27;;;;;;;1999.90;999.90;;;;;;;13.10;100.00;95621.03;5131042;27;20194;-61
2021/06/09 00:46:55;;;;;;;1999.90;999.90;;;;;;;13.24;100.00;95625.06;5131102;28;20237;-61
2021/06/09 00:49:22;;;;;;;1999.90;999.90;;;;;;;13.22;100.00;95621.97;5130936;28;20672;-60
2021/06/09 00:51:49;;;;;;;1999.90;999.90;;;;;;;13.25;100.00;95628.44;5131665;27;20645;-60
2021/06/09 00:54:16;;;;;;;1999.90;999.90;;;;;;;13.10;100.00;95618.44;5135389;27;20195;-60
2021/06/09 00:56:43;;;;;;;1999.90;999.90;;;;;;;13.14;100.00;95627.22;5135335;27;20309;-61
2021/06/09 00:59:10;;;;;;;1999.90;999.90;;;;;;;13.13;100.00;95629.03;5135148;27;20309;-61
2021/06/09 01:01:37;;;;;;;1999.90;999.90;;;;;;;13.07;100.00;95621.63;5134991;27;20194;-60
2021/06/09 01:04:06;;;;;;;1999.90;999.90;;;;;;;13.08;100.00;95620.56;5135406;27;20226;-61
2021/06/09 01:06:33;;;;;;;1999.90;999.90;;;;;;;13.12;100.00;95622.28;5135069;27;20187;-60
2021/06/09 01:09:00;;;;;;;1999.90;999.90;;;;;;;13.15;100.00;95626.88;5135047;27;20657;-60
2021/06/09 01:11:28;;;;;;;1999.90;999.90;;;;;;;13.11;100.00;95625.97;5134742;27;20315;-61
2021/06/09 01:13:55;;;;;;;1999.90;999.90;;;;;;;13.15;100.00;95626.13;5134870;27;20202;-61
2021/06/09 01:16:24;;;;;;;1999.90;999.90;;;;;;;12.98;100.00;95620.84;5134802;27;20194;-61
2021/06/09 01:18:51;;;;;;;1999.90;999.90;;;;;;;12.89;100.00;95624.22;5135143;27;20233;-61
2021/06/09 01:21:26;;;;;;;1999.90;999.90;;;;;;;12.88;100.00;95622.69;5134903;27;20194;-62
2021/06/09 01:23:53;;;;;;;1999.90;999.90;;;;;;;12.82;100.00;95621.28;5134789;27;20196;-61
2021/06/09 01:26:20;;;;;;;1999.90;999.90;;;;;;;12.80;100.00;95620.81;5134686;27;20194;-61
2021/06/09 01:28:47;;;;;;;1999.90;999.90;;;;;;;12.75;100.00;95617.59;5134429;27;20214;-60
2021/06/09 01:31:15;;;;;;;1999.90;999.90;;;;;;;12.79;100.00;95621.13;5135088;27;20240;-61
2021/06/09 01:33:41;;;;;;;1999.90;999.90;;;;;;;12.73;100.00;95620.50;5134697;27;20186;-61
2021/06/09 01:36:09;;;;;;;1999.90;999.90;;;;;;;12.70;100.00;95615.88;5134684;27;20194;-60
2021/06/09 01:38:37;;;;;;;1999.90;999.90;;;;;;;12.58;100.00;95623.53;5134424;27;20216;-61
2021/06/09 01:41:04;;;;;;;1999.90;999.90;;;;;;;12.58;100.00;95631.34;5134449;27;20195;-61
2021/06/09 01:43:31;;;;;;;1999.90;999.90;;;;;;;12.57;100.00;95629.03;5134455;27;20201;-60
2021/06/09 01:45:59;;;;;;;1999.90;999.90;;;;;;;12.58;100.00;95631.34;5134235;27;20247;-59
2021/06/09 01:48:25;;;;;;;1999.90;999.90;;;;;;;12.45;100.00;95637.44;5134300;27;20199;-60
2021/06/09 01:50:52;;;;;;;1999.90;999.90;;;;;;;12.42;100.00;95630.97;5134317;27;20195;-59
2021/06/09 01:53:19;;;;;;;1999.90;999.90;;;;;;;12.37;100.00;95638.16;5134016;27;20187;-60
2021/06/09 01:55:48;;;;;;;1999.90;999.90;;;;;;;12.45;100.00;95635.56;5134009;27;20194;-61
2021/06/09 01:58:17;;;;;;;1999.90;999.90;;;;;;;12.33;100.00;95637.22;5133931;27;20194;-59
2021/06/09 02:00:46;;;;;;;1999.90;999.90;;;;;;;12.11;100.00;95634.66;5134042;27;20222;-60
2021/06/09 02:03:15;;;;;;;1999.90;999.90;;;;;;;12.23;100.00;95627.84;5134036;27;20680;-60
2021/06/09 02:05:43;;;;;;;1999.90;999.90;;;;;;;12.17;100.00;95633.47;5133910;27;20186;-60
2021/06/09 02:08:14;;;;;;;1999.90;999.90;;;;;;;12.17;100.00;95630.84;5133833;27;20190;-60
2021/06/09 02:10:42;;;;;;;1999.90;999.90;;;;;;;12.27;100.00;95633.22;5133436;27;20577;-59
2021/06/09 02:13:13;;;;;;;1999.90;999.90;;;;;;;12.30;100.00;95630.78;5133892;27;20194;-60
2021/06/09 02:15:40;;;;;;;1999.90;999.90;;;;;;;12.28;100.00;95632.13;5133766;27;20673;-60
2021/06/09 02:18:11;;;;;;;1999.90;999.90;;;;;;;12.27;100.00;95633.22;5133646;27;20553;-60
2021/06/09 02:20:40;;;;;;;1999.90;999.90;;;;;;;12.31;100.00;95640.13;5133554;27;20226;-62
2021/06/09 02:23:10;;;;;;;1999.90;999.90;;;;;;;12.26;100.00;95636.88;5133590;27;20197;-61
2021/06/09 02:25:37;;;;;;;1999.90;999.90;;;;;;;12.15;100.00;95638.22;5134061;27;20202;-62
2021/06/09 02:28:07;;;;;;;1999.90;999.90;;;;;;;12.18;100.00;95640.22;5133662;27;20198;-61
2021/06/09 02:30:42;;;;;;;1999.90;999.90;;;;;;;12.23;100.00;95645.31;5133431;27;20225;-61
2021/06/09 02:33:11;;;;;;;1999.90;999.90;;;;;;;12.17;100.00;95639.44;5133429;27;20688;-61
2021/06/09 02:35:42;;;;;;;1999.90;999.90;;;;;;;12.15;100.00;95646.03;5133266;27;20281;-61
2021/06/09 02:38:13;;;;;;;1999.90;999.90;;;;;;;12.06;100.00;95643.38;5133539;27;20238;-60
2021/06/09 02:40:42;;;;;;;1999.90;999.90;;;;;;;12.01;100.00;95654.69;5133308;27;20733;-59
2021/06/09 02:43:10;;;;;;;1999.90;999.90;;;;;;;11.93;100.00;95650.19;5133178;27;20190;-61
2021/06/09 02:45:37;;;;;;;1999.90;999.90;;;;;;;12.03;100.00;95649.19;5133204;27;20641;-61
2021/06/09 02:48:09;;;;;;;1999.90;999.90;;;;;;;12.07;100.00;95650.13;5133347;27;20195;-61
2021/06/09 02:50:36;;;;;;;1999.90;999.90;;;;;;;12.01;100.00;95657.28;5133692;27;20302;-61
2021/06/09 02:53:07;;;;;;;1999.90;999.90;;;;;;;11.99;100.00;95651.63;5133050;27;20273;-61
2021/06/09 02:55:50;;;;;;;1999.90;999.90;;;;;;;12.04;100.00;95648.88;5132965;27;20187;-62
2021/06/09 02:58:27;;;;;;;1999.90;999.90;;;;;;;12.02;100.00;95645.81;5132837;27;20194;-60
2021/06/09 03:01:03;;;;;;;1999.90;999.90;;;;;;;12.08;100.00;95652.44;5132853;27;20232;-61
2021/06/09 03:03:45;;;;;;;1999.90;999.90;;;;;;;12.26;100.00;95649.91;5132719;27;20278;-61
2021/06/09 03:06:19;;;;;;;1999.90;999.90;;;;;;;12.26;100.00;95649.91;5132795;27;20205;-61
2021/06/09 03:08:54;;;;;;;1999.90;999.90;;;;;;;12.37;100.00;95638.94;5132735;27;20797;-61
2021/06/09 03:11:30;;;;;;;1999.90;999.90;;;;;;;12.52;100.00;95641.13;5132597;27;20241;-60
2021/06/09 03:14:03;;;;;;;1999.90;999.90;;;;;;;12.60;100.00;95646.69;5132787;27;20589;-61
2021/06/09 03:16:35;;;;;;;1999.90;999.90;;;;;;;12.67;100.00;95653.00;5132265;27;20198;-61
2021/06/09 03:19:10;;;;;;;1999.90;999.90;;;;;;;12.72;100.00;95652.84;5132227;27;20308;-61
2021/06/09 03:21:42;;;;;;;1999.90;999.90;;;;;;;12.77;100.00;95657.94;5132313;27;20193;-61
2021/06/09 03:24:17;;;;;;;1999.90;999.90;;;;;;;12.63;100.00;95657.28;5132422;27;20199;-60
2021/06/09 03:26:51;;;;;;;1999.90;999.90;;;;;;;12.48;100.00;95655.06;5132494;27;20197;-61
2021/06/09 03:29:27;;;;;;;1999.90;999.90;;;;;;;12.32;100.00;95653.91;5132092;27;20634;-61
2021/06/09 03:31:57;;;;;;;1999.90;999.90;;;;;;;12.29;100.00;95657.13;5132328;27;20201;-61
2021/06/09 03:34:29;;;;;;;1999.90;999.90;;;;;;;12.35;100.00;95651.47;5132202;27;20275;-62
2021/06/09 03:37:00;;;;;;;1999.90;999.90;;;;;;;12.50;100.00;95647.72;5132076;27;20199;-61
2021/06/09 03:39:29;;;;;;;1999.90;999.90;;;;;;;12.58;100.00;95649.59;5132342;27;20226;-61
2021/06/09 03:41:58;;;;;;;1999.90;999.90;;;;;;;12.54;100.00;95651.28;5132026;27;20198;-62
2021/06/09 03:44:29;;;;;;;1999.90;999.90;;;;;;;12.63;100.00;95651.28;5132152;27;20190;-61
2021/06/09 03:46:59;;;;;;;1999.90;999.90;;;;;;;12.59;100.00;95658.97;5132065;27;20194;-61
2021/06/09 03:49:29;;;;;;;1999.90;999.90;;;;;;;12.56;100.00;95654.31;5131839;27;20286;-61
2021/06/09 03:51:56;;;;;;;1999.90;999.90;;;;;;;12.68;100.00;95649.31;5131700;27;20198;-60
2021/06/09 03:54:29;;;;;;;1999.90;999.90;;;;;;;12.64;100.00;95658.06;5131817;27;20240;-62
2021/06/09 03:56:58;;;;;;;1999.90;999.90;;;;;;;12.79;100.00;95661.03;5131930;27;20194;-62
2021/06/09 03:59:26;;;;;;;1999.90;999.90;;;;;;;12.90;100.00;95657.03;5131956;27;20237;-61
2021/06/09 04:01:56;;;;;;;1999.90;999.90;;;;;;;12.79;100.00;95655.81;5131608;27;20187;-62
2021/06/09 04:04:22;;;;;;;1999.90;999.90;;;;;;;12.69;100.00;95653.47;5131653;27;20251;-60
2021/06/09 04:06:54;;;;;;;1999.90;999.90;;;;;;;12.82;100.00;95649.97;5131738;27;20194;-61
2021/06/09 04:09:22;;;;;;;1999.90;999.90;;;;;;;12.87;100.00;95647.22;5131603;27;20194;-61
2021/06/09 04:11:52;;;;;;;1999.90;999.90;;;;;;;12.85;100.00;95659.03;5131154;27;20230;-61
2021/06/09 04:14:23;;;;;;;1999.90;999.90;;;;;;;12.89;100.00;95660.75;5131332;27;20207;-63
2021/06/09 04:16:53;;;;;;;1999.90;999.90;;;;;;;12.93;100.00;95661.66;5131529;27;20653;-63
2021/06/09 04:19:24;;;;;;;1999.90;999.90;;;;;;;12.76;100.00;95660.84;5131278;27;20233;-61
2021/06/09 04:21:52;;;;;;;1999.90;999.90;;;;;;;12.99;100.00;95657.09;5131400;27;20198;-59
2021/06/09 04:24:19;;;;;;;1999.90;999.90;;;;;;;13.05;100.00;95665.53;5131441;27;20237;-61
2021/06/09 04:26:48;;;;;;;1999.90;999.90;;;;;;;13.03;100.00;95665.06;5130371;27;20194;-63
2021/06/09 04:29:16;;;;;;;1999.90;999.90;;;;;;;13.18;100.00;95670.66;5131137;27;20304;-62
2021/06/09 04:31:44;;;;;;;1999.90;999.90;;;;;;;13.44;100.00;95673.28;5131410;27;20281;-59
2021/06/09 04:34:10;;;;;;;1999.90;999.90;;;;;;;13.41;100.00;95670.50;5131159;27;20741;-61
2021/06/09 04:36:37;;;;;;;1999.90;999.90;;;;;;;13.65;100.00;95676.03;5131178;27;20203;-59
2021/06/09 04:39:06;;;;;;;1999.90;999.90;;;;;;;14.09;100.00;95677.56;5131089;27;20712;-60
2021/06/09 04:41:33;;;;;;;1999.90;999.90;;;;;;;14.63;100.00;95682.06;5131221;27;20190;-60
2021/06/09 04:44:00;;;;;;;1999.90;999.90;;;;;;;14.97;100.00;95682.97;5131010;27;20198;-60
2021/06/09 04:46:27;;;;;;;1999.90;999.90;;;;;;;15.10;100.00;95681.97;5130923;27;20291;-59
2021/06/09 04:49:02;;;;;;;1999.90;999.90;;;;;;;14.98;100.00;95689.75;5130861;28;20204;-60
2021/06/09 04:51:31;;;;;;;1999.90;999.90;;;;;;;15.03;100.00;95679.09;5131228;28;20269;-60
2021/06/09 04:53:58;;;;;;;1999.90;999.90;;;;;;;15.18;100.00;95685.63;5130948;28;20186;-61
2021/06/09 04:56:31;;;;;;;1999.90;999.90;;;;;;;14.59;100.00;95683.72;5130860;28;20242;-61
2021/06/09 04:59:00;;;;;;;1999.90;999.90;;;;;;;14.85;100.00;95681.00;5130806;27;20210;-62
2021/06/09 05:01:27;;;;;;;1999.90;999.90;;;;;;;15.20;100.00;95686.06;5130787;28;20672;-61
2021/06/09 05:03:56;;;;;;;1999.90;999.90;;;;;;;15.32;100.00;95684.31;5130868;27;20235;-60
2021/06/09 05:06:23;;;;;;;1999.90;999.90;;;;;;;15.34;100.00;95682.13;5130686;28;20197;-61
2021/06/09 05:08:51;;;;;;;1999.90;999.90;;;;;;;15.05;100.00;95690.00;5130540;28;20691;-58
2021/06/09 05:11:25;;;;;;;1999.90;999.90;;;;;;;15.26;100.00;95690.03;5130595;28;20233;-60
2021/06/09 05:13:55;;;;;;;1999.90;999.90;;;;;;;15.30;100.00;95694.31;5130692;27;20190;-60
2021/06/09 05:16:24;;;;;;;1999.90;999.90;;;;;;;15.23;100.00;95693.31;5131087;28;20247;-61
2021/06/09 05:18:54;;;;;;;1999.90;999.90;;;;;;;15.20;100.00;95688.69;5130600;28;20190;-60
2021/06/09 05:21:26;;;;;;;1999.90;999.90;;;;;;;15.48;100.00;95695.75;5130573;27;20226;-61
2021/06/09 05:23:54;;;;;;;1999.90;999.90;;;;;;;15.47;100.00;95690.81;5130563;28;20202;-62
2021/06/09 05:26:26;;;;;;;1999.90;999.90;;;;;;;15.42;100.00;95689.16;5130688;28;20247;-61
2021/06/09 05:28:57;;;;;;;1999.90;999.90;;;;;;;15.67;100.00;95681.47;5130265;28;20583;-61
2021/06/09 05:31:25;;;;;;;1999.90;999.90;;;;;;;15.90;100.00;95696.53;5130741;27;20186;-61
2021/06/09 05:33:54;;;;;;;1999.90;999.90;;;;;;;16.07;100.00;95698.25;5130484;27;20195;-61
2021/06/09 05:36:21;;;;;;;1999.90;999.90;;;;;;;16.22;100.00;95696.88;5130572;28;20225;-60
2021/06/09 05:38:49;;;;;;;1999.90;999.90;;;;;;;16.23;99.45;95707.03;5132472;27;20194;-60
2021/06/09 05:41:17;;;;;;;1999.90;999.90;;;;;;;16.17;99.89;95692.59;5134281;27;20226;-62
2021/06/09 05:43:44;;;;;;;1999.90;999.90;;;;;;;16.01;100.00;95696.91;5134337;27;20190;-62
2021/06/09 05:46:13;;;;;;;1999.90;999.90;;;;;;;16.22;100.00;95689.00;5134259;27;20251;-60
2021/06/09 05:48:40;;;;;;;1999.90;999.90;;;;;;;16.44;100.00;95683.34;5134225;27;20186;-60
2021/06/09 05:51:09;;;;;;;1999.90;999.90;;;;;;;16.59;100.00;95688.00;5134040;27;20208;-60
2021/06/09 05:53:36;;;;;;;1999.90;999.90;;;;;;;16.70;100.00;95691.75;5134279;27;20206;-62
2021/06/09 05:56:04;;;;;;;1999.90;999.90;;;;;;;16.70;100.00;95688.34;5134383;27;20202;-60
2021/06/09 05:58:32;;;;;;;1999.90;999.90;;;;;;;16.70;98.35;95686.50;5134262;27;20201;-61
2021/06/09 06:01:01;;;;;;;1999.90;999.90;;;;;;;16.64;98.64;95679.16;5133882;27;20222;-61
2021/06/09 06:03:30;;;;;;;1999.90;999.90;;;;;;;16.89;98.21;95680.69;5134071;27;20218;-59
2021/06/09 06:05:59;;;;;;;1999.90;999.90;;;;;;;17.00;96.56;95684.41;5133964;27;20289;-60
2021/06/09 06:08:27;;;;;;;1999.90;999.90;;;;;;;17.23;94.88;95690.00;5134099;27;20194;-61
2021/06/09 06:10:54;;;;;;;1999.90;999.90;;;;;;;17.37;96.24;95679.91;5133511;27;20226;-60
2021/06/09 06:13:25;;;;;;;1999.90;999.90;;;;;;;17.32;96.46;95680.13;5133916;27;20190;-60
2021/06/09 06:15:55;;;;;;;1999.90;999.90;;;;;;;17.21;97.58;95676.41;5133692;27;20712;-60
2021/06/09 06:18:32;;;;;;;1999.90;999.90;;;;;;;17.41;98.45;95677.38;5133671;27;20194;-61
2021/06/09 06:20:59;;;;;;;1999.90;999.90;;;;;;;17.45;98.99;95675.59;5133660;27;20237;-61
2021/06/09 06:23:27;;;;;;;1999.90;999.90;;;;;;;17.40;99.00;95678.47;5133782;27;20198;-60
2021/06/09 06:25:54;;;;;;;1999.90;999.90;;;;;;;17.58;100.00;95672.59;5133602;27;20200;-60
2021/06/09 06:28:22;;;;;;;1999.90;999.90;;;;;;;17.84;98.58;95674.09;5133412;27;20201;-61
2021/06/09 06:30:49;;;;;;;1999.90;999.90;;;;;;;18.00;93.97;95680.94;5133347;27;20190;-61
2021/06/09 06:33:17;;;;;;;1999.90;999.90;;;;;;;17.78;94.55;95678.84;5133824;27;20203;-62
2021/06/09 06:35:47;;;;;;;1999.90;999.90;;;;;;;17.49;97.68;95676.47;5133577;27;20195;-60
2021/06/09 06:38:15;;;;;;;1999.90;999.90;;;;;;;17.63;98.29;95671.66;5133261;27;20194;-60
2021/06/09 06:40:43;;;;;;;1999.90;999.90;;;;;;;17.52;98.48;95667.94;5133183;27;20294;-61
2021/06/09 06:43:10;;;;;;;1999.90;999.90;;;;;;;17.78;100.00;95667.56;5133165;27;20665;-61
2021/06/09 06:45:38;;;;;;;1999.90;999.90;;;;;;;18.00;97.04;95664.38;5133154;27;20190;-60
2021/06/09 06:48:06;;;;;;;1999.90;999.90;;;;;;;17.53;98.24;95667.59;5133351;27;20239;-60
2021/06/09 06:50:34;;;;;;;1999.90;999.90;;;;;;;17.81;100.00;95667.66;5132460;27;20190;-60
2021/06/09 06:53:06;;;;;;;1999.90;999.90;;;;;;;17.49;98.80;95671.97;5133106;27;20198;-60
2021/06/09 06:55:34;;;;;;;1999.90;999.90;;;;;;;17.41;99.87;95664.22;5133026;27;20190;-60
2021/06/09 06:58:03;;;;;;;1999.90;999.90;;;;;;;17.37;100.00;95658.13;5132982;27;20385;-61
2021/06/09 07:00:30;;;;;;;1999.90;999.90;;;;;;;17.80;100.00;95662.72;5132816;27;20267;-59
2021/06/09 07:03:00;;;;;;;1999.90;999.90;;;;;;;18.08;96.80;95667.97;5132999;27;20248;-60
2021/06/09 07:05:27;;;;;;;1999.90;999.90;;;;;;;18.07;96.67;95669.84;5132958;27;20229;-60
2021/06/09 07:07:57;;;;;;;1999.90;999.90;;;;;;;17.99;100.00;95663.63;5133271;27;20195;-61
2021/06/09 07:10:27;;;;;;;1999.90;999.90;;;;;;;18.48;100.00;95669.38;5132778;27;20891;-60
2021/06/09 07:12:56;;;;;;;1999.90;999.90;;;;;;;18.57;96.37;95671.13;5112145;28;20192;-61
2021/06/09 07:15:24;;;;;;;1999.90;999.90;;;;;;;18.54;98.42;95672.56;5112498;28;20198;-60
2021/06/09 07:17:52;;;;;;;1999.90;999.90;;;;;;;18.97;95.28;95678.84;5112371;28;20198;-61
2021/06/09 07:20:22;;;;;;;1999.90;999.90;;;;;;;19.24;91.48;95677.94;5111906;28;20300;-59
2021/06/09 07:22:51;;;;;;;1999.90;999.90;;;;;;;19.43;90.48;95675.31;5111983;28;20192;-61
2021/06/09 07:25:19;;;;;;;1999.90;999.90;;;;;;;19.58;90.98;95681.69;5111908;28;20202;-61
2021/06/09 07:27:55;;;;;;;1999.90;999.90;;;;;;;19.61;95.18;95675.75;5111947;28;20355;-60
2021/06/09 07:30:27;;;;;;;1999.90;999.90;;;;;;;19.55;87.45;95685.03;5111843;28;20215;-59
2021/06/09 07:32:54;;;;;;;1999.90;999.90;;;;;;;19.58;94.46;95676.41;5111857;28;20187;-61
2021/06/09 07:35:21;;;;;;;1999.90;999.90;;;;;;;19.73;88.73;95678.22;5111708;28;20316;-60
2021/06/09 07:37:51;;;;;;;1999.90;999.90;;;;;;;19.80;90.21;95680.25;5111910;28;20199;-61
2021/06/09 07:40:21;;;;;;;1999.90;999.90;;;;;;;19.84;93.37;95675.81;5111434;28;20251;-60
2021/06/09 07:42:53;;;;;;;1999.90;999.90;;;;;;;19.94;93.12;95677.88;5111723;28;20226;-60
2021/06/09 07:45:22;;;;;;;1999.90;999.90;;;;;;;20.06;92.42;95675.09;5111541;28;20206;-60
2021/06/09 07:47:50;;;;;;;1999.90;999.90;;;;;;;20.13;89.21;95669.94;5111407;28;20190;-60
2021/06/09 07:50:25;;;;;;;1999.90;999.90;;;;;;;19.89;92.44;95670.25;5111460;28;20214;-61
2021/06/09 07:52:54;;;;;;;1999.90;999.90;;;;;;;20.14;86.23;95679.41;5111160;28;20186;-60
2021/06/09 07:55:22;;;;;;;1999.90;999.90;;;;;;;20.61;93.48;95663.28;5111469;28;20194;-60
2021/06/09 07:57:52;;;;;;;1999.90;999.90;;;;;;;20.52;88.72;95670.69;5111289;28;20194;-61
2021/06/09 08:00:20;;;;;;;1999.90;999.90;;;;;;;20.86;86.01;95674.25;5111108;28;20597;-60
2021/06/09 08:02:49;;;;;;;1999.90;999.90;;;;;;;20.48;86.90;95670.59;5111371;28;20191;-60
2021/06/09 08:05:17;;;;;;;1999.90;999.90;;;;;;;20.87;90.28;95665.19;5111525;28;20191;-62
2021/06/09 08:07:43;;;;;;;1999.90;999.90;;;;;;;20.94;86.30;95666.06;5111275;28;20289;-59
2021/06/09 08:10:12;;;;;;;1999.90;999.90;;;;;;;21.13;84.77;95670.47;5111014;28;20649;-60
2021/06/09 08:12:39;;;;;;;1999.90;999.90;;;;;;;21.23;84.09;95677.06;5129414;27;20226;-60
2021/06/09 08:15:09;;;;;;;1999.90;999.90;;;;;;;21.40;83.18;95677.31;5131450;27;20193;-61
2021/06/09 08:17:38;;;;;;;1999.90;999.90;;;;;;;21.62;83.65;95670.41;5131403;27;20197;-59
2021/06/09 08:20:07;;;;;;;1999.90;999.90;;;;;;;21.77;83.29;95672.09;5131561;27;20688;-60
2021/06/09 08:22:34;;;;;;;1999.90;999.90;;;;;;;21.79;85.66;95666.47;5131543;27;20205;-59
2021/06/09 08:25:01;;;;;;;1999.90;999.90;;;;;;;22.12;85.34;95661.19;5131307;27;20201;-59
2021/06/09 08:27:28;;;;;;;1999.90;999.90;;;;;;;22.44;85.17;95656.19;5131414;27;20219;-59
2021/06/09 08:29:55;;;;;;;1999.90;999.90;;;;;;;22.32;83.00;95657.22;5131262;27;20210;-60
2021/06/09 08:32:23;;;;;;;1999.90;999.90;;;;;;;22.67;83.97;95661.31;5131424;27;20253;-60
2021/06/09 08:34:50;;;;;;;1999.90;999.90;;;;;;;22.65;81.71;95653.75;5131134;27;20197;-59
2021/06/09 08:37:17;;;;;;;1999.90;999.90;;;;;;;23.08;84.24;95654.84;5131435;27;20214;-61
2021/06/09 08:39:44;;;;;;;1999.90;999.90;;;;;;;23.32;76.74;95658.00;5131129;27;20269;-62
2021/06/09 08:42:13;;;;;;;1999.90;999.90;;;;;;;23.29;75.35;95653.44;5130926;27;20688;-60
2021/06/09 08:44:42;;;;;;;1999.90;999.90;;;;;;;23.09;75.65;95650.28;5131074;27;20197;-61
2021/06/09 08:47:12;;;;;;;1999.90;999.90;;;;;;;22.82;73.17;95655.03;5131066;27;20198;-62
2021/06/09 08:49:41;;;;;;;1999.90;999.90;;;;;;;23.05;75.76;95655.59;5131266;28;20194;-59
2021/06/09 08:52:11;;;;;;;1999.90;999.90;;;;;;;22.90;72.78;95656.63;5130982;28;20201;-60
2021/06/09 08:54:42;;;;;;;1999.90;999.90;;;;;;;22.63;79.63;95648.03;5130845;28;20238;-59
2021/06/09 08:57:09;;;;;;;1999.90;999.90;;;;;;;22.72;79.46;95648.50;5131327;28;20222;-61
2021/06/09 08:59:38;;;;;;;1999.90;999.90;;;;;;;22.84;78.80;95650.13;5130965;28;20201;-61
2021/06/09 09:02:04;;;;;;;1999.90;999.90;;;;;;;22.93;79.89;95653.22;5130943;28;20201;-61
2021/06/09 09:04:33;;;;;;;1999.90;999.90;;;;;;;22.99;79.67;95654.41;5131099;28;20692;-63
2021/06/09 09:07:07;;;;;;;1999.90;999.90;;;;;;;22.87;79.59;95651.25;5130976;28;20277;-60
2021/06/09 09:09:34;;;;;;;1999.90;999.90;;;;;;;22.82;77.22;95655.03;5130667;28;20562;-60
2021/06/09 09:12:02;;;;;;;1999.90;999.90;;;;;;;22.69;77.61;95646.56;5130827;27;20732;-61
2021/06/09 09:14:28;;;;;;;1999.90;999.90;;;;;;;22.78;77.45;95651.59;5134260;27;20197;-61
2021/06/09 09:17:06;;;;;;;1999.90;999.90;;;;;;;22.79;75.13;95650.47;5134920;27;20190;-62
2021/06/09 09:19:36;;;;;;;1999.90;999.90;;;;;;;22.71;75.46;95641.69;5134795;27;20229;-61
2021/06/09 09:22:04;;;;;;;1999.90;999.90;;;;;;;22.57;76.21;95652.13;5134826;27;20290;-59
2021/06/09 09:24:42;;;;;;;1999.90;999.90;;;;;;;22.58;76.67;95644.97;5135224;27;20234;-61
2021/06/09 09:27:12;;;;;;;1999.90;999.90;;;;;;;22.63;76.58;95637.44;5135069;27;20231;-61
2021/06/09 09:29:39;;;;;;;1999.90;999.90;;;;;;;23.03;74.23;95636.63;5134445;27;20214;-61
2021/06/09 09:32:08;;;;;;;1999.90;999.90;;;;;;;23.51;80.44;95633.88;5134577;27;20846;-61
2021/06/09 09:34:40;;;;;;;1999.90;999.90;;;;;;;23.88;76.41;95639.69;5134835;27;20225;-61
2021/06/09 09:37:14;;;;;;;1999.90;999.90;;;;;;;24.00;75.03;95639.38;5134605;27;20757;-60
2021/06/09 09:39:43;;;;;;;1999.90;999.90;;;;;;;24.03;71.15;95638.59;5134925;27;20621;-60
2021/06/09 09:42:33;;;;;;;1999.90;999.90;;;;;;;24.57;64.85;95618.19;5134551;27;20277;-60
2021/06/09 09:45:30;;;;;;;1999.90;999.90;;;;;;;24.82;61.74;95613.63;5130665;27;20186;-61
2021/06/09 09:48:16;;;;;;;1999.90;999.90;;;;;;;24.69;63.63;95609.09;5070956;28;20203;-60
2021/06/09 09:50:48;;;;;;;1999.90;999.90;;;;;;;25.01;64.30;95609.06;5128234;27;20799;-60
2021/06/09 09:53:20;;;;;;;1999.90;999.90;;;;;;;25.63;61.04;95607.41;5134319;27;20200;-60
2021/06/09 09:55:55;;;;;;;1999.90;999.90;;;;;;;25.95;55.21;95599.22;5134210;27;20285;-61
2021/06/09 09:58:22;;;;;;;1999.90;999.90;;;;;;;26.08;59.36;95596.88;5134192;27;20190;-61
2021/06/09 10:00:50;;;;;;;1999.90;999.90;;;;;;;26.22;60.11;95602.16;5134127;27;20225;-61
2021/06/09 10:03:19;;;;;;;1999.90;999.90;;;;;;;26.26;57.87;95600.22;5134058;27;20221;-61
2021/06/09 10:05:46;;;;;;;1999.90;999.90;;;;;;;26.44;55.59;95600.84;5133949;27;20243;-62
2021/06/09 10:08:13;;;;;;;1999.90;999.90;;;;;;;26.35;58.75;95600.53;5133940;27;20199;-60
2021/06/09 10:10:42;;;;;;;1999.90;999.90;;;;;;;25.94;59.41;95594.31;5133639;27;20277;-61
2021/06/09 10:13:11;;;;;;;1999.90;999.90;;;;;;;25.46;60.30;95602.88;5134212;27;20207;-60
2021/06/09 10:15:46;;;;;;;1999.90;999.90;;;;;;;25.18;60.35;95597.66;5133759;27;20642;-61
2021/06/09 10:18:16;;;;;;;1999.90;999.90;;;;;;;25.44;60.52;95596.44;5134081;27;20247;-60
2021/06/09 10:20:45;;;;;;;1999.90;999.90;;;;;;;25.29;59.71;95593.06;5133687;27;20226;-59
2021/06/09 10:23:35;;;;;;;1999.90;999.90;;;;;;;25.12;59.45;95591.94;5133869;27;20279;-59
2021/06/09 10:26:08;;;;;;;1999.90;999.90;;;;;;;24.84;60.24;95590.09;5132477;27;20229;-60
2021/06/09 10:28:57;;;;;;;1999.90;999.90;;;;;;;24.83;60.02;95577.19;5133407;27;20197;-60
2021/06/09 10:31:25;;;;;;;1999.90;999.90;;;;;;;24.94;59.07;95577.94;5133754;27;20247;-60
2021/06/09 10:33:52;;;;;;;1999.90;999.90;;;;;;;24.87;56.92;95577.94;5133629;27;20221;-60
2021/06/09 10:36:19;;;;;;;1999.90;999.90;;;;;;;24.91;53.53;95576.03;5133563;27;20289;-61
2021/06/09 10:38:47;;;;;;;1999.90;999.90;;;;;;;24.70;52.58;95582.16;5133260;27;20721;-60
2021/06/09 10:41:16;;;;;;;1999.90;999.90;;;;;;;24.36;53.07;95579.09;5133256;27;20233;-60
2021/06/09 10:43:45;;;;;;;1999.90;999.90;;;;;;;24.52;54.56;95573.41;5133442;27;20194;-61
2021/06/09 10:46:13;;;;;;;1999.90;999.90;;;;;;;24.58;53.69;95563.91;5133109;27;20258;-59
2021/06/09 10:48:41;;;;;;;1999.90;999.90;;;;;;;24.78;56.05;95567.69;5133127;27;20277;-60
2021/06/09 10:51:12;;;;;;;1999.90;999.90;;;;;;;25.06;53.33;95571.44;5133042;27;20664;-60
2021/06/09 10:53:43;;;;;;;1999.90;999.90;;;;;;;25.15;49.98;95574.47;5133029;27;20668;-61
2021/06/09 10:56:10;;;;;;;1999.90;999.90;;;;;;;25.37;51.46;95562.59;5133111;27;20198;-60
2021/06/09 10:58:39;;;;;;;1999.90;999.90;;;;;;;25.41;51.06;95565.25;5132977;27;20190;-59